Time;durP1;ratioP1;P1;durP2;ratioP2;P2;SDS_P1;SDS_P2;PMS_P1;PMS_P2;Temp;Humidity;BMP_temperature;BMP_pressure;BME280_temperature;BME280_humidity;BME280_pressure;Samples;Min_cycle;Max_cycle;Signal;HPM_P1;HPM_P2
2021/11/04 00:02:24;;;;;;;59.47;30.40;;;;;;;10.55;89.35;99872.59;5051366;28;20017;-50
2021/11/04 00:04:50;;;;;;;54.38;27.85;;;;;;;10.48;89.36;99869.88;5051094;28;20027;-49
2021/11/04 00:07:17;;;;;;;53.08;27.45;;;;;;;10.42;90.43;99872.53;5050799;28;20032;-51
2021/11/04 00:09:42;;;;;;;54.10;26.13;;;;;;;10.26;90.36;99868.31;5050907;28;20029;-52
2021/11/04 00:12:08;;;;;;;52.40;27.00;;;;;;;10.35;90.46;99880.47;5051096;28;20017;-49
2021/11/04 00:14:34;;;;;;;51.78;27.10;;;;;;;10.26;91.17;99885.13;5051226;28;20504;-50
2021/11/04 00:16:59;;;;;;;49.83;26.73;;;;;;;10.44;90.74;99878.47;5050206;28;20032;-49
2021/11/04 00:19:26;;;;;;;46.50;24.85;;;;;;;10.57;88.84;99883.84;5050442;28;20108;-51
2021/11/04 00:21:51;;;;;;;60.15;28.30;;;;;;;10.87;88.44;99881.66;5050891;28;20032;-51
2021/11/04 00:24:16;;;;;;;63.00;28.33;;;;;;;10.57;89.96;99873.19;5050462;28;20082;-50
2021/11/04 00:26:42;;;;;;;56.67;26.70;;;;;;;10.47;89.57;99872.75;5049475;28;20434;-49
2021/11/04 00:29:08;;;;;;;53.47;26.63;;;;;;;10.50;90.14;99885.66;5050902;28;20028;-50
2021/11/04 00:31:33;;;;;;;94.57;29.70;;;;;;;10.44;90.38;99894.44;5050733;28;20029;-51
2021/11/04 00:33:59;;;;;;;60.88;26.83;;;;;;;10.30;91.82;99901.50;5050437;28;20064;-52
2021/11/04 00:36:24;;;;;;;66.85;27.35;;;;;;;10.28;91.25;99898.22;5050637;28;20094;-50
2021/11/04 00:38:50;;;;;;;100.18;30.80;;;;;;;10.42;91.35;99899.94;5050322;28;20044;-49
2021/11/04 00:41:16;;;;;;;111.40;30.58;;;;;;;10.34;92.39;99897.47;5050430;28;20094;-49
2021/11/04 00:43:42;;;;;;;62.60;29.38;;;;;;;10.31;91.92;99906.66;5050457;28;20025;-50
2021/11/04 00:46:07;;;;;;;68.03;27.58;;;;;;;10.33;91.89;99903.78;5049374;28;20462;-49
2021/11/04 00:48:33;;;;;;;69.53;29.38;;;;;;;10.47;91.55;99904.66;5050167;28;20032;-50
2021/11/04 00:50:58;;;;;;;63.60;26.95;;;;;;;10.32;92.46;99900.31;5050190;28;20028;-49
2021/11/04 00:53:24;;;;;;;63.97;28.15;;;;;;;10.49;91.90;99906.13;5050001;28;20027;-50
2021/11/04 00:55:49;;;;;;;105.55;31.25;;;;;;;10.59;91.81;99910.25;5049977;28;20103;-49
2021/11/04 00:58:17;;;;;;;95.25;31.00;;;;;;;10.69;90.40;99918.69;5050336;28;20021;-51
2021/11/04 01:00:42;;;;;;;86.97;30.10;;;;;;;10.36;92.27;99914.88;5050031;28;20115;-50
2021/11/04 01:03:08;;;;;;;120.97;30.13;;;;;;;10.46;91.67;99909.16;5049921;28;20457;-49
2021/11/04 01:05:33;;;;;;;98.93;31.92;;;;;;;10.78;90.73;99914.81;5049816;28;20024;-49
2021/11/04 01:07:59;;;;;;;73.65;29.08;;;;;;;10.59;90.44;99912.91;5049726;28;20021;-49
2021/11/04 01:10:26;;;;;;;68.38;30.10;;;;;;;10.56;91.82;99914.13;5050191;28;20028;-50
2021/11/04 01:12:51;;;;;;;91.82;31.67;;;;;;;10.57;91.70;99913.94;5050451;28;20126;-51
2021/11/04 01:15:17;;;;;;;89.40;31.00;;;;;;;10.59;92.19;99921.72;5049927;28;20484;-49
2021/11/04 01:17:43;;;;;;;85.40;31.02;;;;;;;10.51;91.09;99893.44;5050011;28;20107;-49
2021/11/04 01:20:08;;;;;;;101.05;31.23;;;;;;;10.50;92.88;99923.72;5050052;28;20481;-49
2021/11/04 01:22:34;;;;;;;102.13;30.23;;;;;;;10.65;92.72;99946.72;5050142;28;20056;-49
2021/11/04 01:25:00;;;;;;;76.22;30.70;;;;;;;10.66;92.41;99943.00;5050099;28;20033;-49
2021/11/04 01:27:25;;;;;;;92.68;30.85;;;;;;;10.73;91.73;99957.19;5049598;28;20021;-50
2021/11/04 01:29:51;;;;;;;81.38;30.55;;;;;;;10.59;92.77;99948.34;5049766;28;20017;-50
2021/11/04 01:32:16;;;;;;;74.63;28.77;;;;;;;10.54;93.61;99948.09;5050894;28;20032;-49
2021/11/04 01:34:42;;;;;;;78.30;30.40;;;;;;;10.74;92.99;99961.50;5054125;28;20037;-50
2021/11/04 01:37:07;;;;;;;86.72;30.38;;;;;;;10.69;92.48;99954.09;5052439;28;20040;-50
2021/11/04 01:39:32;;;;;;;79.95;31.25;;;;;;;10.68;92.44;99960.44;5053738;28;20032;-50
2021/11/04 01:41:58;;;;;;;87.90;31.45;;;;;;;10.85;91.83;99949.44;5053984;28;20055;-49
2021/11/04 01:44:23;;;;;;;81.82;30.85;;;;;;;10.78;92.35;99954.75;5053632;28;20494;-48
2021/11/04 01:46:49;;;;;;;90.85;31.05;;;;;;;10.74;92.22;99948.19;5053556;28;20024;-49
2021/11/04 01:49:15;;;;;;;102.65;30.13;;;;;;;10.89;91.93;99951.50;5053638;28;20424;-49
2021/11/04 01:51:41;;;;;;;79.95;29.20;;;;;;;11.00;91.70;99958.06;5052274;28;20021;-50
2021/11/04 01:54:06;;;;;;;91.63;31.08;;;;;;;11.05;91.17;99958.31;5035501;28;20029;-49
2021/11/04 01:56:37;;;;;;;78.80;28.17;;;;;;;10.85;92.22;99960.94;5053790;28;20020;-49
2021/11/04 01:59:02;;;;;;;68.75;27.20;;;;;;;10.68;92.69;99955.13;5053087;28;20033;-48
2021/11/04 02:01:28;;;;;;;81.13;28.98;;;;;;;10.77;93.30;99955.75;5053005;28;20351;-48
2021/11/04 02:04:02;;;;;;;69.65;26.42;;;;;;;10.91;91.98;99956.66;5034966;28;20031;-48
2021/11/04 02:06:32;;;;;;;75.40;27.35;;;;;;;10.98;91.92;99961.97;5051698;28;20159;-48
2021/11/04 02:09:07;;;;;;;74.85;27.63;;;;;;;10.94;91.32;99958.88;5052755;28;20025;-48
2021/11/04 02:11:39;;;;;;;70.50;26.75;;;;;;;10.91;91.64;99967.28;5052019;28;20136;-51
2021/11/04 02:14:09;;;;;;;71.60;27.08;;;;;;;11.02;90.02;99974.66;5052665;28;20115;-49
2021/11/04 02:16:34;;;;;;;71.50;27.38;;;;;;;10.80;90.88;99959.88;5051420;28;20401;-50
2021/11/04 02:19:01;;;;;;;61.30;25.33;;;;;;;10.78;90.25;99943.28;5034739;28;20021;-49
2021/11/04 02:21:47;;;;;;;69.00;26.20;;;;;;;10.82;89.94;99963.97;5035464;28;20053;-48
2021/11/04 02:24:19;;;;;;;58.55;24.63;;;;;;;10.76;89.41;99968.25;5052617;28;20154;-49
2021/11/04 02:26:44;;;;;;;60.10;24.50;;;;;;;10.65;90.60;99968.00;5053031;28;20154;-49
2021/11/04 02:29:10;;;;;;;60.47;24.38;;;;;;;10.67;91.63;99971.28;5052395;28;20343;-49
2021/11/04 02:31:35;;;;;;;56.70;23.25;;;;;;;10.62;90.91;99982.50;5034591;28;20036;-48
2021/11/04 02:34:01;;;;;;;53.53;23.60;;;;;;;10.72;90.43;99974.19;5052299;28;20432;-50
2021/11/04 02:36:26;;;;;;;56.33;24.52;;;;;;;10.84;89.50;99969.91;5052310;28;20028;-49
2021/11/04 02:38:52;;;;;;;65.72;24.90;;;;;;;10.79;90.32;99966.22;5050934;28;20044;-49
2021/11/04 02:41:17;;;;;;;60.50;25.38;;;;;;;10.87;89.76;99974.84;5034170;28;20028;-51
2021/11/04 02:43:43;;;;;;;59.97;25.33;;;;;;;10.83;90.55;99973.59;5034660;28;20126;-48
2021/11/04 02:46:08;;;;;;;52.78;24.00;;;;;;;10.78;90.83;99976.03;5051326;28;20397;-49
2021/11/04 02:48:34;;;;;;;61.25;24.00;;;;;;;10.83;90.32;99972.78;5034490;28;20480;-49
2021/11/04 02:50:59;;;;;;;58.38;25.85;;;;;;;10.96;89.36;99972.81;5051285;28;20033;-49
2021/11/04 02:53:28;;;;;;;62.58;25.70;;;;;;;11.09;89.55;99980.03;5052557;28;20141;-51
2021/11/04 02:55:53;;;;;;;59.97;26.25;;;;;;;10.96;90.16;99988.78;5052111;28;20100;-49
2021/11/04 02:58:19;;;;;;;57.90;25.45;;;;;;;10.97;90.19;99993.13;5051858;28;20179;-51
2021/11/04 03:00:47;;;;;;;57.90;25.52;;;;;;;10.87;91.19;99998.81;5051978;28;20516;-50
2021/11/04 03:03:12;;;;;;;52.75;24.25;;;;;;;10.89;90.34;99999.44;5051812;28;20116;-49
2021/11/04 03:05:38;;;;;;;51.92;22.92;;;;;;;10.86;90.57;99981.19;5051571;28;20048;-50
2021/11/04 03:08:03;;;;;;;52.25;23.30;;;;;;;10.88;90.77;99988.97;5051410;28;20060;-49
2021/11/04 03:10:29;;;;;;;58.00;24.10;;;;;;;10.83;91.27;99999.41;5052164;28;20766;-49
2021/11/04 03:12:54;;;;;;;53.90;23.42;;;;;;;10.83;91.60;99992.22;5051574;28;20028;-49
2021/11/04 03:15:21;;;;;;;57.67;24.73;;;;;;;10.97;90.73;100001.09;5051251;28;20024;-49
2021/11/04 03:17:48;;;;;;;54.10;24.48;;;;;;;11.08;89.76;100008.50;5051653;28;20029;-49
2021/11/04 03:20:14;;;;;;;60.20;25.40;;;;;;;10.93;90.54;100008.66;5051711;28;20020;-49
2021/11/04 03:22:40;;;;;;;62.88;26.13;;;;;;;10.98;91.10;100010.72;5051661;28;20173;-49
2021/11/04 03:25:05;;;;;;;63.90;26.48;;;;;;;11.00;91.00;100015.84;5034361;28;20378;-49
2021/11/04 03:27:32;;;;;;;57.55;25.42;;;;;;;10.99;90.92;100019.53;5050756;28;20036;-49
2021/11/04 03:29:57;;;;;;;67.75;26.90;;;;;;;11.10;90.54;100024.28;5051622;28;20052;-49
2021/11/04 03:32:22;;;;;;;68.05;28.05;;;;;;;11.13;90.39;100024.69;5051787;28;20067;-49
2021/11/04 03:34:48;;;;;;;65.68;27.95;;;;;;;11.19;89.85;100028.41;5051716;28;20059;-50
2021/11/04 03:37:15;;;;;;;69.38;28.00;;;;;;;11.14;90.58;100037.00;5031270;28;20030;-50
2021/11/04 03:39:41;;;;;;;69.30;28.00;;;;;;;11.39;89.42;100039.13;5031805;28;20461;-48
2021/11/04 03:42:07;;;;;;;67.43;27.40;;;;;;;11.18;89.51;100024.13;5013741;28;20061;-48
2021/11/04 03:44:32;;;;;;;63.80;27.33;;;;;;;11.19;90.61;100028.41;5013980;28;20065;-48
2021/11/04 03:46:59;;;;;;;66.60;27.23;;;;;;;11.13;91.01;100029.22;5030289;28;20030;-49
2021/11/04 03:49:24;;;;;;;78.05;28.95;;;;;;;11.17;91.71;100034.97;5031542;28;20035;-49
2021/11/04 03:51:51;;;;;;;73.88;29.40;;;;;;;11.37;90.07;100041.16;5063254;28;20029;-48
2021/11/04 03:54:22;;;;;;;73.85;27.63;;;;;;;11.26;90.41;100029.25;5030975;28;20037;-50
2021/11/04 03:56:47;;;;;;;74.13;29.45;;;;;;;11.37;90.18;100035.84;5029765;28;20095;-48
2021/11/04 03:59:13;;;;;;;75.65;30.17;;;;;;;11.12;90.46;100001.75;5030306;28;20033;-48
2021/11/04 04:01:38;;;;;;;93.55;34.10;;;;;;;11.36;90.76;100034.19;5031557;28;20037;-48
2021/11/04 04:04:04;;;;;;;85.43;33.42;;;;;;;11.43;89.87;100037.69;5031117;28;20409;-49
2021/11/04 04:06:29;;;;;;;88.15;32.92;;;;;;;11.30;91.47;100030.47;5030743;28;20031;-49
2021/11/04 04:08:55;;;;;;;92.78;34.03;;;;;;;11.39;90.35;100032.97;5035307;28;20028;-48
2021/11/04 04:11:22;;;;;;;93.75;34.40;;;;;;;11.37;90.75;100037.69;5032929;28;20480;-48
2021/11/04 04:13:48;;;;;;;91.20;33.83;;;;;;;11.45;90.42;100040.16;5051194;28;20024;-48
2021/11/04 04:16:14;;;;;;;96.25;34.83;;;;;;;11.37;90.49;100041.16;5050956;28;20557;-51
2021/11/04 04:18:39;;;;;;;96.10;35.85;;;;;;;11.29;90.94;100028.00;5050764;28;20036;-49
2021/11/04 04:21:05;;;;;;;92.15;34.00;;;;;;;11.37;91.34;100033.19;5050599;28;20029;-48
2021/11/04 04:23:30;;;;;;;101.60;35.75;;;;;;;11.41;90.99;100038.94;5050436;28;20036;-49
2021/11/04 04:25:55;;;;;;;89.45;34.95;;;;;;;11.29;91.49;100039.50;5050424;28;20031;-48
2021/11/04 04:28:21;;;;;;;88.65;33.40;;;;;;;11.26;92.07;100039.09;5050460;28;20053;-48
2021/11/04 04:30:47;;;;;;;90.03;33.53;;;;;;;11.15;92.27;100035.16;5050207;28;20020;-49
2021/11/04 04:33:12;;;;;;;89.88;34.33;;;;;;;11.14;92.80;100042.34;5050443;28;20053;-48
2021/11/04 04:35:37;;;;;;;93.63;34.00;;;;;;;11.19;91.63;100044.38;5050344;28;20032;-48
2021/11/04 04:38:03;;;;;;;88.05;34.00;;;;;;;11.13;93.03;100040.69;5050199;28;20457;-49
2021/11/04 04:40:28;;;;;;;91.97;34.13;;;;;;;11.23;93.06;100045.66;5050196;28;20028;-49
2021/11/04 04:42:54;;;;;;;89.38;35.25;;;;;;;11.40;91.95;100039.94;5049109;28;20032;-50
2021/11/04 04:45:19;;;;;;;91.63;33.38;;;;;;;11.45;91.62;100043.66;5050614;28;20033;-49
2021/11/04 04:47:45;;;;;;;82.90;34.60;;;;;;;11.41;92.03;100042.41;5050149;28;20025;-49
2021/11/04 04:50:10;;;;;;;92.00;33.38;;;;;;;11.31;92.14;100039.31;5050091;28;20040;-50
2021/11/04 04:52:36;;;;;;;98.68;33.92;;;;;;;11.35;92.68;100035.22;5050230;28;20025;-50
2021/11/04 04:55:01;;;;;;;92.82;34.20;;;;;;;11.59;91.98;100049.81;5050046;28;20420;-49
2021/11/04 04:57:27;;;;;;;96.32;35.63;;;;;;;11.58;91.55;100053.53;5049560;28;20024;-50
2021/11/04 04:59:55;;;;;;;92.88;34.03;;;;;;;11.50;92.20;100053.72;5049710;28;20422;-50
2021/11/04 05:02:21;;;;;;;101.00;35.03;;;;;;;11.63;91.86;100047.56;5049965;28;20032;-50
2021/11/04 05:04:47;;;;;;;103.30;35.35;;;;;;;11.54;91.47;100046.94;5049845;28;20319;-50
2021/11/04 05:07:12;;;;;;;99.03;36.55;;;;;;;11.54;92.47;100042.44;5048603;28;20079;-49
2021/11/04 05:09:38;;;;;;;102.40;36.28;;;;;;;11.59;91.74;100046.34;5049287;28;20075;-51
2021/11/04 05:12:04;;;;;;;104.25;37.50;;;;;;;11.59;91.37;100047.16;5049915;28;20477;-49
2021/11/04 05:14:29;;;;;;;119.07;42.35;;;;;;;11.53;92.09;100050.63;5049660;28;20405;-49
2021/11/04 05:16:55;;;;;;;107.97;37.33;;;;;;;11.30;93.04;100051.00;5048215;28;20028;-51
2021/11/04 05:19:20;;;;;;;129.27;41.53;;;;;;;11.51;92.65;100052.69;5049623;28;20130;-50
2021/11/04 05:21:46;;;;;;;112.68;39.80;;;;;;;11.46;92.25;100055.13;5049578;28;20418;-49
2021/11/04 05:24:12;;;;;;;114.05;38.38;;;;;;;11.50;92.46;100057.19;5048946;28;20036;-51
2021/11/04 05:26:37;;;;;;;105.10;34.78;;;;;;;11.36;92.15;100055.50;5049216;28;20036;-52
2021/11/04 05:29:03;;;;;;;102.35;35.70;;;;;;;11.40;92.20;100063.91;5049552;28;20021;-49
2021/11/04 05:31:29;;;;;;;103.70;35.50;;;;;;;11.33;92.22;100066.59;5049328;28;20025;-51
2021/11/04 05:33:54;;;;;;;115.05;36.50;;;;;;;11.51;91.58;100072.16;5049117;28;20099;-49
2021/11/04 05:36:21;;;;;;;114.28;37.50;;;;;;;11.49;92.74;100073.38;5049279;28;20122;-49
2021/11/04 05:38:46;;;;;;;105.65;36.33;;;;;;;11.48;92.07;100067.25;5048964;28;20504;-51
2021/11/04 05:41:12;;;;;;;114.30;37.58;;;;;;;11.58;92.97;100074.03;5049073;28;20020;-51
2021/11/04 05:43:37;;;;;;;104.97;35.42;;;;;;;11.51;93.01;100066.81;5049143;28;20065;-52
2021/11/04 05:46:03;;;;;;;109.13;35.88;;;;;;;11.48;93.34;100079.72;5049241;28;20021;-49
2021/11/04 05:48:28;;;;;;;102.93;33.70;;;;;;;11.63;91.62;100075.06;5049216;28;20523;-49
2021/11/04 05:50:54;;;;;;;98.68;33.42;;;;;;;11.59;91.09;100086.31;5048821;28;20120;-50
2021/11/04 05:53:19;;;;;;;104.85;35.10;;;;;;;11.63;91.50;100085.72;5048304;28;20025;-49
2021/11/04 05:55:45;;;;;;;111.63;35.25;;;;;;;11.63;90.59;100088.41;5048785;28;20025;-47
2021/11/04 05:58:11;;;;;;;100.75;35.03;;;;;;;11.47;90.85;100084.22;5049108;28;20047;-50
2021/11/04 06:00:36;;;;;;;91.50;35.60;;;;;;;11.62;90.18;100088.59;5049028;28;20396;-49
2021/11/04 06:03:02;;;;;;;116.28;36.20;;;;;;;11.63;89.59;100090.22;5048779;28;20063;-52
2021/11/04 06:05:27;;;;;;;103.55;36.42;;;;;;;11.63;90.06;100088.41;5049554;28;20485;-49
2021/11/04 06:07:53;;;;;;;112.68;37.20;;;;;;;11.61;89.73;100085.09;5048396;28;20016;-50
2021/11/04 06:10:18;;;;;;;119.13;35.70;;;;;;;11.39;90.63;100086.28;5048585;28;20043;-49
2021/11/04 06:12:44;;;;;;;110.25;36.42;;;;;;;11.35;91.42;100092.00;5048882;28;20116;-51
2021/11/04 06:15:09;;;;;;;111.30;34.90;;;;;;;11.35;91.17;100084.00;5038068;28;20113;-49
2021/11/04 06:17:35;;;;;;;104.78;35.90;;;;;;;11.44;90.65;100089.13;5031487;28;20563;-49
2021/11/04 06:20:01;;;;;;;98.15;35.00;;;;;;;11.38;90.07;100096.09;5049165;28;20029;-50
2021/11/04 06:22:26;;;;;;;108.20;36.38;;;;;;;11.72;89.49;100092.50;5053063;28;20741;-50
2021/11/04 06:24:52;;;;;;;103.72;35.00;;;;;;;11.69;88.81;100100.06;5052393;28;20021;-49
2021/11/04 06:27:17;;;;;;;100.55;34.50;;;;;;;11.42;89.54;100092.00;5051678;28;20397;-50
2021/11/04 06:29:42;;;;;;;107.35;35.92;;;;;;;11.43;90.76;100095.50;5050027;28;20027;-49
2021/11/04 06:32:08;;;;;;;170.82;68.50;;;;;;;11.55;91.14;100097.38;5050724;28;20031;-48
2021/11/04 06:34:34;;;;;;;127.93;48.80;;;;;;;11.82;90.04;100100.13;5049491;28;20142;-49
2021/11/04 06:36:59;;;;;;;98.55;34.00;;;;;;;11.81;90.01;100103.78;5050081;28;20025;-49
2021/11/04 06:39:24;;;;;;;100.47;35.60;;;;;;;11.78;90.08;100111.38;5050373;28;20077;-51
2021/11/04 06:41:51;;;;;;;95.63;34.33;;;;;;;11.72;89.09;100108.47;5050691;28;20385;-50
2021/11/04 06:44:17;;;;;;;86.30;32.45;;;;;;;11.71;90.55;100116.72;5050689;28;20032;-48
2021/11/04 06:46:43;;;;;;;93.55;32.88;;;;;;;11.75;90.72;100115.28;5051575;28;20024;-51
2021/11/04 06:49:09;;;;;;;92.30;33.75;;;;;;;11.88;90.46;100112.63;5051026;28;20021;-49
2021/11/04 06:51:41;;;;;;;96.05;33.47;;;;;;;12.10;90.10;100121.28;5051387;28;20028;-48
2021/11/04 06:54:06;;;;;;;97.28;34.55;;;;;;;12.07;89.77;100124.38;5050276;28;20456;-50
2021/11/04 06:56:39;;;;;;;104.80;33.97;;;;;;;11.98;89.58;100122.13;5052035;28;20029;-51
2021/11/04 06:59:05;;;;;;;96.32;34.17;;;;;;;11.88;90.77;100133.97;5051495;28;20028;-49
2021/11/04 07:01:30;;;;;;;96.43;33.70;;;;;;;12.08;90.25;100123.34;5034064;28;20017;-50
2021/11/04 07:03:57;;;;;;;103.38;34.15;;;;;;;12.07;88.97;100127.06;5050796;28;20021;-52
2021/11/04 07:06:28;;;;;;;94.82;33.97;;;;;;;12.04;90.10;100139.97;5050623;28;20025;-48
2021/11/04 07:08:56;;;;;;;109.70;35.50;;;;;;;11.95;90.74;100135.84;5050683;28;20017;-50
2021/11/04 07:11:23;;;;;;;109.05;35.00;;;;;;;12.04;90.00;100135.44;5052051;28;20040;-48
2021/11/04 07:13:49;;;;;;;92.38;32.65;;;;;;;12.00;90.54;100130.75;5050696;28;20100;-48
2021/11/04 07:16:15;;;;;;;93.90;33.92;;;;;;;12.00;90.35;100136.88;5051851;28;20021;-49
2021/11/04 07:18:41;;;;;;;101.45;34.80;;;;;;;12.00;90.36;100136.06;5051702;28;20106;-48
2021/11/04 07:21:18;;;;;;;113.63;36.20;;;;;;;12.11;90.17;100138.94;5051412;28;20021;-51
2021/11/04 07:24:05;;;;;;;113.30;35.53;;;;;;;12.11;89.69;100140.81;5051005;28;20031;-48
2021/11/04 07:26:39;;;;;;;107.75;34.40;;;;;;;12.04;90.10;100143.44;5050803;28;20028;-49
2021/11/04 07:29:06;;;;;;;104.35;35.42;;;;;;;12.01;90.74;100141.19;5049314;28;20021;-50
2021/11/04 07:31:36;;;;;;;98.85;35.05;;;;;;;12.04;90.92;100138.13;5048918;28;20021;-49
2021/11/04 07:34:03;;;;;;;118.07;35.97;;;;;;;12.22;89.54;100145.53;5051327;28;20049;-50
2021/11/04 07:36:29;;;;;;;90.40;33.28;;;;;;;12.18;88.64;100144.28;5051680;28;20082;-50
2021/11/04 07:38:54;;;;;;;92.05;32.28;;;;;;;12.08;90.02;100143.88;5033211;28;20033;-50
2021/11/04 07:41:20;;;;;;;97.63;33.97;;;;;;;12.14;89.89;100140.38;5033666;28;20032;-52
2021/11/04 07:43:47;;;;;;;95.97;34.42;;;;;;;12.09;90.10;100141.00;5051519;28;20067;-49
2021/11/04 07:46:12;;;;;;;104.53;35.95;;;;;;;12.12;89.74;100145.91;5051356;28;20025;-49
2021/11/04 07:48:37;;;;;;;104.85;35.75;;;;;;;12.16;90.15;100146.34;5051097;28;20443;-51
2021/11/04 07:51:03;;;;;;;110.22;37.25;;;;;;;12.19;89.57;100151.28;5049406;28;20036;-49
2021/11/04 07:53:29;;;;;;;100.22;33.58;;;;;;;12.11;90.53;100148.81;5051642;28;20029;-52
2021/11/04 07:55:54;;;;;;;95.93;33.75;;;;;;;12.18;89.99;100140.78;5050819;28;20021;-49
2021/11/04 07:58:20;;;;;;;83.93;32.17;;;;;;;12.16;90.09;100133.00;5051231;28;20540;-49
2021/11/04 08:00:45;;;;;;;80.82;30.00;;;;;;;12.32;89.72;100142.47;5051047;28;20131;-49
2021/11/04 08:03:11;;;;;;;75.65;29.48;;;;;;;12.36;88.71;100146.34;5050624;28;20096;-50
2021/11/04 08:05:37;;;;;;;63.85;24.92;;;;;;;12.35;88.03;100141.22;5050519;28;20021;-50
2021/11/04 08:08:04;;;;;;;71.38;28.85;;;;;;;12.25;89.69;100144.31;5050114;28;20048;-52
2021/11/04 08:10:30;;;;;;;72.72;28.02;;;;;;;12.58;87.70;100132.78;5050167;28;20111;-48
2021/11/04 08:13:02;;;;;;;71.40;25.85;;;;;;;12.63;86.91;100139.16;5050396;28;20047;-50
2021/11/04 08:15:27;;;;;;;51.20;22.48;;;;;;;12.48;87.10;100144.69;5050950;28;20040;-51
2021/11/04 08:17:53;;;;;;;63.47;24.60;;;;;;;12.54;87.71;100145.72;5050357;28;20040;-48
2021/11/04 08:20:19;;;;;;;58.90;25.13;;;;;;;12.61;88.47;100146.53;5050516;28;20630;-49
2021/11/04 08:22:44;;;;;;;48.53;21.30;;;;;;;12.71;86.31;100146.13;5050361;28;20028;-51
2021/11/04 08:25:10;;;;;;;32.13;15.88;;;;;;;12.73;85.10;100145.91;5049840;28;20025;-50
2021/11/04 08:27:35;;;;;;;30.38;15.27;;;;;;;12.88;84.25;100141.97;5050656;28;20017;-52
2021/11/04 08:30:01;;;;;;;16.58;10.07;;;;;;;12.95;81.87;100149.19;5050024;28;20029;-49
2021/11/04 08:32:27;;;;;;;16.40;9.70;;;;;;;12.67;83.71;100152.91;5050246;28;20025;-49
2021/11/04 08:34:52;;;;;;;18.23;10.68;;;;;;;12.50;85.36;100166.66;5049941;28;20067;-50
2021/11/04 08:37:18;;;;;;;20.73;11.70;;;;;;;12.59;85.13;100163.81;5049050;28;20385;-47
2021/11/04 08:39:43;;;;;;;29.48;14.07;;;;;;;12.97;83.35;100168.50;5049619;28;20021;-49
2021/11/04 08:42:09;;;;;;;27.83;14.35;;;;;;;12.84;83.54;100142.63;5049314;28;20013;-48
2021/11/04 08:44:34;;;;;;;30.55;15.63;;;;;;;12.83;83.76;100175.69;5049727;28;20481;-49
2021/11/04 08:47:00;;;;;;;29.63;14.75;;;;;;;12.68;84.81;100167.91;5046482;28;20024;-48
2021/11/04 08:49:25;;;;;;;28.90;14.95;;;;;;;12.73;85.29;100176.09;5049633;28;20510;-48
2021/11/04 08:51:54;;;;;;;24.65;14.70;;;;;;;12.73;83.80;100172.63;5047935;28;20025;-48
2021/11/04 08:54:21;;;;;;;25.83;14.03;;;;;;;12.75;84.54;100182.06;5045803;28;20060;-48
2021/11/04 08:56:47;;;;;;;26.73;14.50;;;;;;;12.88;83.55;100184.72;5049346;28;20029;-50
2021/11/04 08:59:12;;;;;;;26.83;14.30;;;;;;;12.96;82.92;100180.19;5048614;28;20024;-48
2021/11/04 09:01:38;;;;;;;27.90;16.00;;;;;;;12.93;83.23;100185.94;5049857;28;20131;-48
2021/11/04 09:04:04;;;;;;;34.15;16.25;;;;;;;12.73;83.97;100197.47;5049427;28;20386;-48
2021/11/04 09:06:29;;;;;;;79.90;45.92;;;;;;;12.83;83.85;100176.53;5049498;28;20032;-48
2021/11/04 09:08:55;;;;;;;37.38;20.60;;;;;;;12.82;84.21;100179.41;5049299;28;20404;-48
2021/11/04 09:11:21;;;;;;;32.25;17.58;;;;;;;12.93;84.41;100184.09;5049390;28;20017;-49
2021/11/04 09:13:46;;;;;;;30.48;16.33;;;;;;;12.82;84.94;100172.19;5049580;28;20502;-46
2021/11/04 09:16:12;;;;;;;32.42;16.08;;;;;;;12.78;85.04;100168.31;5049193;28;20110;-49
2021/11/04 09:18:37;;;;;;;28.98;16.52;;;;;;;12.81;84.78;100161.72;5049274;28;20090;-47
2021/11/04 09:21:03;;;;;;;27.85;15.98;;;;;;;12.86;84.04;100153.91;5049319;28;20040;-47
2021/11/04 09:23:28;;;;;;;28.80;16.52;;;;;;;12.90;83.58;100157.81;5049133;28;20028;-47
2021/11/04 09:25:54;;;;;;;34.97;18.85;;;;;;;13.07;82.92;100144.81;5048095;28;20112;-47
2021/11/04 09:28:19;;;;;;;34.03;18.98;;;;;;;13.32;81.94;100149.50;5049139;28;20496;-47
2021/11/04 09:30:45;;;;;;;35.95;19.70;;;;;;;13.42;81.43;100147.19;5048291;28;20060;-48
2021/11/04 09:33:10;;;;;;;36.33;19.25;;;;;;;13.21;82.64;100145.59;5047029;28;20063;-47
2021/11/04 09:35:36;;;;;;;35.22;18.92;;;;;;;13.16;83.07;100146.22;5048605;28;20041;-48
2021/11/04 09:38:05;;;;;;;36.67;19.17;;;;;;;13.21;83.87;100140.25;5048781;28;20029;-48
2021/11/04 09:40:31;;;;;;;40.30;19.80;;;;;;;13.39;82.20;100134.25;5048452;28;20366;-48
2021/11/04 09:42:56;;;;;;;35.00;19.65;;;;;;;13.47;81.18;100136.69;5048840;28;20044;-48
2021/11/04 09:45:26;;;;;;;38.05;20.35;;;;;;;13.79;80.02;100139.41;5048229;28;20021;-48
2021/11/04 09:47:51;;;;;;;37.80;22.20;;;;;;;13.73;79.75;100133.06;5048061;28;20025;-49
2021/11/04 09:50:17;;;;;;;37.53;20.90;;;;;;;13.42;80.89;100129.31;5048621;28;20037;-47
2021/11/04 09:52:44;;;;;;;35.88;20.33;;;;;;;13.44;81.67;100126.41;5048837;28;20075;-47
2021/11/04 09:55:13;;;;;;;36.55;20.98;;;;;;;13.72;79.26;100117.22;5049774;28;20028;-48
2021/11/04 09:57:41;;;;;;;38.08;21.20;;;;;;;13.55;80.25;100115.03;5052332;28;20029;-48
2021/11/04 10:00:07;;;;;;;38.80;21.17;;;;;;;13.57;80.41;100118.31;5052567;28;20569;-48
2021/11/04 10:02:33;;;;;;;36.28;21.27;;;;;;;13.50;81.35;100114.88;5052390;28;20511;-49
2021/11/04 10:05:06;;;;;;;37.55;21.42;;;;;;;13.67;81.66;100125.91;5051969;28;20036;-51
2021/11/04 10:07:45;;;;;;;34.40;21.63;;;;;;;13.90;79.85;100120.00;5044883;28;20017;-47
2021/11/04 10:10:11;;;;;;;35.28;21.95;;;;;;;13.65;80.67;100114.56;5049478;28;20025;-50
2021/11/04 10:12:40;;;;;;;35.95;21.13;;;;;;;13.60;81.97;100119.75;5052467;28;20449;-50
2021/11/04 10:15:13;;;;;;;39.85;22.23;;;;;;;13.45;82.62;100126.19;5051199;28;20029;-48
2021/11/04 10:17:39;;;;;;;34.42;21.17;;;;;;;13.57;82.52;100122.84;5050476;28;20116;-48
2021/11/04 10:20:13;;;;;;;35.30;21.15;;;;;;;13.71;81.25;100128.94;5052285;28;20393;-50
2021/11/04 10:22:39;;;;;;;39.47;21.15;;;;;;;13.80;80.86;100130.34;5052390;28;20481;-48
2021/11/04 10:25:05;;;;;;;37.97;22.02;;;;;;;13.74;81.47;100123.97;5051406;28;20059;-48
2021/11/04 10:27:32;;;;;;;35.42;21.60;;;;;;;13.73;79.95;100116.16;5052502;28;20183;-47
2021/11/04 10:29:59;;;;;;;38.45;22.13;;;;;;;13.69;80.16;100124.66;5051747;28;20048;-48
2021/11/04 10:32:33;;;;;;;38.67;22.13;;;;;;;13.73;80.75;100119.69;5051344;28;20033;-48
2021/11/04 10:35:09;;;;;;;37.55;22.25;;;;;;;14.00;78.59;100125.69;5051511;28;20060;-48
2021/11/04 10:37:42;;;;;;;35.35;21.67;;;;;;;13.98;78.63;100126.94;5051569;28;20025;-49
2021/11/04 10:40:08;;;;;;;32.85;20.65;;;;;;;13.93;79.00;100118.72;5049814;28;20558;-48
2021/11/04 10:43:06;;;;;;;35.53;21.38;;;;;;;13.91;79.58;100118.13;5051869;28;20056;-47
2021/11/04 10:45:31;;;;;;;36.05;22.45;;;;;;;14.23;77.03;100118.94;5052074;28;20027;-51
2021/11/04 10:48:18;;;;;;;42.38;22.88;;;;;;;14.16;76.95;100105.59;5051624;28;20021;-50
2021/11/04 10:50:44;;;;;;;36.00;23.13;;;;;;;14.03;77.62;100116.38;5052257;28;20678;-48
2021/11/04 10:53:11;;;;;;;35.72;22.40;;;;;;;13.94;78.15;100109.69;5051921;28;20025;-51
2021/11/04 10:55:36;;;;;;;40.25;22.48;;;;;;;14.16;77.58;100104.78;5051424;28;20044;-48
2021/11/04 10:58:06;;;;;;;35.10;21.83;;;;;;;14.31;76.60;100113.28;5051733;28;20437;-49
2021/11/04 11:00:34;;;;;;;38.90;22.42;;;;;;;14.24;77.06;100110.69;5051403;28;20385;-48
2021/11/04 11:03:03;;;;;;;35.60;22.10;;;;;;;14.24;76.08;100101.81;5033864;28;20032;-47
2021/11/04 11:05:29;;;;;;;38.47;22.65;;;;;;;14.38;77.08;100100.69;5051623;28;20075;-49
2021/11/04 11:07:57;;;;;;;34.78;22.33;;;;;;;14.46;75.34;100088.88;5051234;28;20025;-47